createdAt,value
2023-01-05T00:00:02.372Z,91.8
2023-01-05T00:15:02.912Z,90.8
2023-01-05T00:30:02.253Z,89.5
2023-01-05T00:45:02.919Z,87.6
2023-01-05T01:00:02.285Z,86.2
2023-01-05T01:15:02.565Z,85.3
2023-01-05T01:30:02.980Z,85.6
2023-01-05T01:45:02.421Z,86.1
2023-01-05T02:00:02.922Z,85.7
2023-01-05T02:15:02.300Z,85.5
2023-01-05T02:30:02.936Z,86.3
2023-01-05T02:45:02.159Z,86.8
2023-01-05T03:00:02.578Z,87.5
2023-01-05T03:15:03.060Z,88.2
2023-01-05T03:30:02.487Z,88.5
2023-01-05T03:45:02.955Z,88.6
2023-01-05T04:00:02.343Z,89.7
2023-01-05T04:15:02.973Z,90.7
2023-01-05T04:30:02.214Z,91.7
2023-01-05T04:45:02.675Z,92.1
2023-01-05T05:00:03.108Z,92.5
2023-01-05T05:15:02.558Z,92.7
2023-01-05T05:30:02.989Z,92.3
2023-01-05T05:45:02.405Z,91.9
2023-01-05T06:00:02.980Z,91.5
2023-01-05T06:15:02.284Z,91.4
2023-01-05T06:30:02.730Z,93.0
2023-01-05T06:45:03.187Z,94.4
2023-01-05T07:00:02.625Z,95.0
2023-01-05T07:15:03.050Z,95.1
2023-01-05T07:30:02.544Z,95.1
2023-01-05T07:45:03.018Z,94.7
2023-01-05T08:00:02.361Z,94.1
2023-01-05T08:15:03.024Z,93.0
2023-01-05T08:30:02.213Z,91.9
2023-01-05T08:45:02.685Z,91.1
2023-01-05T09:00:03.115Z,91.0
2023-01-05T09:15:02.515Z,91.2
2023-01-05T09:30:03.026Z,91.1
2023-01-05T09:45:02.415Z,90.9
2023-01-05T10:00:03.053Z,91.1
2023-01-05T10:15:02.324Z,91.0
2023-01-05T10:30:02.751Z,90.7
2023-01-05T10:45:03.184Z,90.3
2023-01-05T11:00:02.723Z,91.3
2023-01-05T11:15:03.093Z,91.8
2023-01-05T11:30:02.506Z,91.2
2023-01-05T11:45:03.122Z,90.6
2023-01-05T12:00:02.388Z,91.3
2023-01-05T12:15:03.083Z,93.0
2023-01-05T12:31:59.396Z,93.8
2023-01-05T12:45:02.712Z,94.2
2023-01-05T13:00:03.135Z,94.1
2023-01-05T13:15:02.580Z,94.0
2023-01-05T13:30:03.107Z,93.7
2023-01-05T13:45:02.461Z,93.3
2023-01-05T14:00:08.078Z,94.0
2023-01-05T14:15:02.342Z,94.9
2023-01-05T14:30:02.767Z,95.5
2023-01-05T14:45:03.229Z,95.5
2023-01-05T15:00:02.717Z,95.7
2023-01-05T15:15:03.117Z,95.5
2023-01-05T15:30:02.685Z,95.2
2023-01-05T15:45:03.139Z,94.8
2023-01-05T16:00:02.387Z,94.8
2023-01-05T16:15:02.820Z,94.6
2023-01-05T16:30:02.262Z,94.4
2023-01-05T16:45:02.700Z,94.0
2023-01-05T17:00:03.158Z,94.1
2023-01-05T17:15:02.565Z,94.3
2023-01-05T17:30:03.160Z,94.5
2023-01-05T17:45:02.460Z,94.5
2023-01-05T18:00:02.886Z,94.6
2023-01-05T18:15:02.338Z,94.7
2023-01-05T18:30:02.733Z,94.9
2023-01-05T18:45:13.727Z,94.8
2023-01-05T19:00:03.619Z,94.4
2023-01-05T19:15:03.176Z,93.9
2023-01-05T19:30:02.499Z,94.3
2023-01-05T19:45:03.119Z,94.9
2023-01-05T20:00:02.376Z,95.5
2023-01-05T20:15:02.786Z,96.0
2023-01-05T20:30:02.295Z,96.2
2023-01-05T20:45:02.671Z,96.4
2023-01-05T21:00:03.209Z,96.9
2023-01-05T21:15:02.540Z,97.3
2023-01-05T21:30:03.210Z,97.6
2023-01-05T21:45:02.425Z,97.9
2023-01-05T22:00:02.848Z,98.1
2023-01-05T22:15:02.285Z,98.5
2023-01-05T22:30:02.720Z,98.7
2023-01-05T22:45:03.226Z,98.9
2023-01-05T23:00:02.611Z,99.2
2023-01-05T23:15:02.246Z,99.4
2023-01-05T23:30:02.479Z,99.6
2023-01-05T23:45:02.921Z,99.7
